This is the latest recevied weather packets stored in our database for station/object K7MT-WX. If no packets are shown the sender has not sent any weather packets the latest 10 day(s).
| Time | Temp. | Humidity | Pressure | Rain* | Wind** | Luminosity | Snow |
|---|---|---|---|---|---|---|---|
| 1777542429 | -0.56° C | 79% | 1023.6 hPa | 0 mm | - | - | - |
| 1777541529 | -0.56° C | 80% | 1023.7 hPa | 0 mm | - | - | - |
| 1777540629 | 0° C | 78% | 1023.7 hPa | 0 mm | - | - | - |
| 1777539729 | 0° C | 78% | 1023.6 hPa | 0 mm | - | - | - |
| 1777538829 | 0.56° C | 76% | 1023.7 hPa | 0 mm | - | - | - |
| 1777537929 | 0.56° C | 76% | 1023.7 hPa | 0 mm | - | - | - |
| 1777537029 | 0.56° C | 76% | 1023.7 hPa | 0 mm | - | - | - |
| 1777536129 | 1.11° C | 74% | 1023.7 hPa | 0 mm | - | - | - |
| 1777535229 | 2.22° C | 73% | 1023.7 hPa | 0 mm | - | - | - |
| 1777534329 | 1.67° C | 73% | 1023.8 hPa | 0 mm | - | - | - |
| 1777533429 | 2.22° C | 72% | 1023.6 hPa | 0 mm | - | - | - |
| 1777532529 | 2.78° C | 70% | 1023.6 hPa | 0 mm | - | - | - |
| 1777531629 | 2.78° C | 71% | 1023.6 hPa | 0 mm | - | - | - |
| 1777530729 | 2.78° C | 70% | 1023.4 hPa | 0 mm | - | - | - |
| 1777529829 | 3.33° C | 68% | 1023.2 hPa | 0 mm | - | - | - |
| 1777528929 | 3.89° C | 66% | 1023.1 hPa | 0 mm | - | - | - |
| 1777528029 | 4.44° C | 65% | 1023.3 hPa | 0 mm | - | - | - |
| 1777527129 | 3.89° C | 67% | 1023.1 hPa | 0 mm | - | - | - |
| 1777526229 | 3.89° C | 65% | 1023 hPa | 0 mm | - | - | - |
| 1777525329 | 5° C | 62% | 1023.1 hPa | 0 mm | - | - | - |
| 1777524429 | 5.56° C | 60% | 1023.1 hPa | 0 mm | - | - | - |
| 1777523529 | 6.11° C | 58% | 1023 hPa | 0 mm | - | - | - |
| 1777522629 | 6.67° C | 57% | 1022.9 hPa | 0 mm | - | - | - |
| 1777521729 | 6.67° C | 57% | 1022.9 hPa | 0 mm | - | - | - |
| 1777520829 | 6.67° C | 56% | 1022.8 hPa | 0 mm | - | - | - |
* Rain latest hour (hover to see other rain measurements)
** Current wind speed in m/s (hover to see current wind gust speed)